Time;durP1;ratioP1;P1;durP2;ratioP2;P2;SDS_P1;SDS_P2;PMS_P1;PMS_P2;Temp;Humidity;BMP_temperature;BMP_pressure;BME280_temperature;BME280_humidity;BME280_pressure;Samples;Min_cycle;Max_cycle;Signal;HPM_P1;HPM_P2
2022/08/31 00:04:56;;;;;;;7.6;4.7;;;;;;;19.51;79.41406;938.1309;;;;
2022/08/31 00:07:22;;;;;;;5.7;4.2;;;;;;;19.37;78.26953;938.1077;;;;
2022/08/31 00:09:48;;;;;;;5;4.3;;;;;;;19.42;78.4541;938.1389;;;;
2022/08/31 00:12:13;;;;;;;4.6;4.1;;;;;;;19.52;77.80762;938.1412;;;;
2022/08/31 00:14:38;;;;;;;4.9;4.5;;;;;;;19.58;77.80566;938.1271;;;;
2022/08/31 00:17:03;;;;;;;5.3;4.6;;;;;;;19.63;77.89648;938.1817;;;;
2022/08/31 00:19:28;;;;;;;4.9;4.2;;;;;;;19.67;77.9043;938.1315;;;;
2022/08/31 00:21:54;;;;;;;5.5;4.7;;;;;;;19.72;77.77441;938.1205;;;;
2022/08/31 00:24:19;;;;;;;4.6;4.2;;;;;;;19.68;77.68457;938.1992;;;;
2022/08/31 00:26:46;;;;;;;5.7;4;;;;;;;19.66;76.98145;938.1834;;;;
2022/08/31 00:29:12;;;;;;;4.2;3.7;;;;;;;19.63;76.1123;938.1713;;;;
2022/08/31 00:31:40;;;;;;;5.1;3.6;;;;;;;19.6;76.1543;938.1926;;;;
2022/08/31 00:34:05;;;;;;;3.9;3.6;;;;;;;19.61;76.10938;938.1676;;;;
2022/08/31 00:36:31;;;;;;;5.1;4;;;;;;;19.55;77.65039;938.1682;;;;
2022/08/31 00:38:56;;;;;;;7.9;4.3;;;;;;;19.46;78.33203;938.1418;;;;
2022/08/31 00:41:23;;;;;;;5;4.5;;;;;;;19.43;78.67676;938.213;;;;
2022/08/31 00:43:48;;;;;;;5.3;4.5;;;;;;;19.41;79.47949;938.1816;;;;
2022/08/31 00:46:16;;;;;;;5.2;4.1;;;;;;;19.41;79.87402;938.201;;;;
2022/08/31 00:48:41;;;;;;;5.5;4.2;;;;;;;19.42;78.9668;938.2898;;;;
2022/08/31 00:51:07;;;;;;;4.3;3.9;;;;;;;19.46;78.15723;938.2769;;;;
2022/08/31 00:53:32;;;;;;;3.8;3.5;;;;;;;19.38;77.98145;938.2833;;;;
2022/08/31 00:55:57;;;;;;;4.4;3.1;;;;;;;19.41;77.60059;938.2633;;;;
2022/08/31 00:58:23;;;;;;;3.9;3.5;;;;;;;19.46;77.23828;938.2558;;;;
2022/08/31 01:00:48;;;;;;;4;3.6;;;;;;;19.47;77.06543;938.1894;;;;
2022/08/31 01:03:16;;;;;;;5.4;3.5;;;;;;;19.43;77.22168;938.2072;;;;
2022/08/31 01:05:46;;;;;;;3.9;3.3;;;;;;;19.33;77.72754;938.1699;;;;
2022/08/31 01:08:12;;;;;;;4.8;3.8;;;;;;;19.33;78.92676;938.1989;;;;
2022/08/31 01:10:39;;;;;;;4.4;3.8;;;;;;;19.34;78.76758;938.1412;;;;
2022/08/31 01:13:05;;;;;;;4.2;3.5;;;;;;;19.33;77.68066;938.0948;;;;
2022/08/31 01:15:35;;;;;;;3.9;3.2;;;;;;;19.24;76.75781;938.1235;;;;
2022/08/31 01:18:03;;;;;;;3.8;3;;;;;;;19.26;76.99219;938.1199;;;;
2022/08/31 01:20:29;;;;;;;3.5;3.2;;;;;;;19.24;76.31348;938.1083;;;;
2022/08/31 01:22:54;;;;;;;4.8;3.5;;;;;;;19.2;75.80664;938.0952;;;;
2022/08/31 01:25:22;;;;;;;3.5;3.1;;;;;;;19.27;75.29492;938.1018;;;;
2022/08/31 01:27:47;;;;;;;4;3.3;;;;;;;19.34;75.4707;938.1437;;;;
2022/08/31 01:30:13;;;;;;;4.3;3.6;;;;;;;19.39;75.30371;938.1934;;;;
2022/08/31 01:32:43;;;;;;;6;3.8;;;;;;;19.42;76.03027;938.1273;;;;
2022/08/31 01:35:08;;;;;;;4.8;3.6;;;;;;;19.41;75.36328;938.1308;;;;
2022/08/31 01:37:39;;;;;;;3.4;3;;;;;;;19.34;75.31738;938.0962;;;;
2022/08/31 01:40:13;;;;;;;3.9;3.4;;;;;;;19.24;76.60449;938.093;;;;
2022/08/31 01:42:43;;;;;;;4.2;3.8;;;;;;;19.2;76.77148;938.0807;;;;
2022/08/31 01:45:18;;;;;;;3.7;3.3;;;;;;;19.21;77.04297;938.095;;;;
2022/08/31 01:47:47;;;;;;;4.3;3.1;;;;;;;19.11;78.16504;938.1539;;;;
2022/08/31 01:50:15;;;;;;;4.4;3.5;;;;;;;19.02;78.75586;938.0927;;;;
2022/08/31 01:52:41;;;;;;;3.6;3.2;;;;;;;19.05;78.65625;938.1626;;;;
2022/08/31 01:55:06;;;;;;;4;3.5;;;;;;;19.07;78.37012;938.1168;;;;
2022/08/31 01:57:36;;;;;;;3.5;3.2;;;;;;;19.1;78.56055;938.0524;;;;
2022/08/31 02:00:04;;;;;;;4;3.4;;;;;;;19.15;78.4873;938.0964;;;;
2022/08/31 02:02:30;;;;;;;4.7;4;;;;;;;19.18;78.20117;937.9819;;;;
2022/08/31 02:04:59;;;;;;;4.8;3.8;;;;;;;19.16;78.22266;937.9815;;;;
2022/08/31 02:07:24;;;;;;;3.7;3.4;;;;;;;19.1;78.61719;938.1074;;;;
2022/08/31 02:09:52;;;;;;;4.9;3.6;;;;;;;19.04;79.21289;938.1136;;;;
2022/08/31 02:12:17;;;;;;;5.7;3.9;;;;;;;19.04;79.27148;938.1071;;;;
2022/08/31 02:14:43;;;;;;;3.7;3.4;;;;;;;19.04;78.60742;937.9528;;;;
2022/08/31 02:17:09;;;;;;;4.2;3.7;;;;;;;19.07;77.97266;938.024;;;;
2022/08/31 02:19:36;;;;;;;4.6;3.7;;;;;;;19.09;77.96387;937.9945;;;;
2022/08/31 02:22:01;;;;;;;3.7;3.3;;;;;;;19.12;77.83008;938.035;;;;
2022/08/31 02:24:28;;;;;;;3.4;3.1;;;;;;;19.12;78.30762;937.9953;;;;
2022/08/31 02:26:54;;;;;;;3.9;3.2;;;;;;;19.08;78.53418;937.9689;;;;
2022/08/31 02:29:19;;;;;;;4.2;3.2;;;;;;;19.11;79.23926;937.9753;;;;
2022/08/31 02:31:44;;;;;;;7.8;3.9;;;;;;;18.99;79.92676;937.9561;;;;
2022/08/31 02:34:09;;;;;;;5.5;3.9;;;;;;;18.92;80.2959;937.9902;;;;
2022/08/31 02:36:36;;;;;;;3.8;3.4;;;;;;;18.89;79.87207;938.0223;;;;
2022/08/31 02:39:01;;;;;;;4;3.1;;;;;;;18.83;79.11914;938.0083;;;;
2022/08/31 02:41:31;;;;;;;3.6;3.3;;;;;;;18.8;78.64551;938.0056;;;;
2022/08/31 02:43:59;;;;;;;3.7;3.3;;;;;;;18.81;78.71875;938.0012;;;;
2022/08/31 02:46:24;;;;;;;3.3;3;;;;;;;18.84;78.66504;937.9855;;;;
2022/08/31 02:48:52;;;;;;;3.9;3.3;;;;;;;18.81;78.64941;938.0204;;;;
2022/08/31 02:51:17;;;;;;;3.7;3.3;;;;;;;18.75;78.48633;938.0156;;;;
2022/08/31 02:53:44;;;;;;;4.1;3.1;;;;;;;18.76;78.2666;938.0273;;;;
2022/08/31 02:56:13;;;;;;;4.7;3.2;;;;;;;18.69;78.57031;938.0433;;;;
2022/08/31 02:58:34;;;;;;;3.7;3.1;;;;;;;18.68;78.63672;937.9872;;;;
2022/08/31 03:01:01;;;;;;;3.3;3;;;;;;;18.74;79.63672;937.9882;;;;
2022/08/31 03:03:26;;;;;;;3.7;3.3;;;;;;;18.7;80.16406;938.0795;;;;
2022/08/31 03:05:52;;;;;;;3.9;3.3;;;;;;;18.65;80.51758;938.0862;;;;
2022/08/31 03:08:17;;;;;;;4.7;3.6;;;;;;;18.62;80.69531;938.1008;;;;
2022/08/31 03:10:44;;;;;;;3.9;3.5;;;;;;;18.57;80.75684;938.1746;;;;
2022/08/31 03:13:09;;;;;;;4.9;3.2;;;;;;;18.55;81.31348;938.1692;;;;
2022/08/31 03:15:39;;;;;;;4.8;4.4;;;;;;;18.47;82.33203;938.1517;;;;
2022/08/31 03:18:05;;;;;;;4.2;3.8;;;;;;;18.55;82.19727;938.1821;;;;
2022/08/31 03:20:31;;;;;;;4;3.6;;;;;;;18.61;81.96191;938.1665;;;;
2022/08/31 03:22:56;;;;;;;4.4;3.9;;;;;;;18.67;82.125;938.1375;;;;
2022/08/31 03:25:25;;;;;;;7.8;4.3;;;;;;;18.72;81.56445;938.1564;;;;
2022/08/31 03:27:50;;;;;;;6.2;4;;;;;;;18.76;81.76953;938.1395;;;;
2022/08/31 03:30:20;;;;;;;5;4.2;;;;;;;18.81;81.47461;938.1925;;;;
2022/08/31 03:32:49;;;;;;;4.4;3.7;;;;;;;18.83;81.63281;938.1769;;;;
2022/08/31 03:35:16;;;;;;;4.9;3.6;;;;;;;18.86;81.75293;938.2383;;;;
2022/08/31 03:37:40;;;;;;;4.1;3.7;;;;;;;18.88;81.69727;938.2654;;;;
2022/08/31 03:40:11;;;;;;;4.5;4.1;;;;;;;18.92;81.79883;938.2919;;;;
2022/08/31 03:42:40;;;;;;;7.4;3.9;;;;;;;18.91;82.26172;938.2979;;;;
2022/08/31 03:45:06;;;;;;;4.1;3.7;;;;;;;18.9;82.45898;938.327;;;;
2022/08/31 03:47:33;;;;;;;4.2;3.8;;;;;;;18.85;83.27539;938.3356;;;;
2022/08/31 03:49:58;;;;;;;5.4;3.6;;;;;;;18.83;83.29492;938.4182;;;;
2022/08/31 03:52:26;;;;;;;3.8;3.4;;;;;;;18.79;84.05469;938.4615;;;;
2022/08/31 03:54:51;;;;;;;3.7;3.4;;;;;;;18.77;84.375;938.4725;;;;
2022/08/31 03:57:18;;;;;;;4;3.6;;;;;;;18.65;84.77344;938.4807;;;;
2022/08/31 03:59:43;;;;;;;3.7;3.3;;;;;;;;;;;;;
2022/08/31 04:02:32;;;;;;;5.5;3.7;;;;;;;18.38;86.03516;938.5862;;;;
2022/08/31 04:04:57;;;;;;;4.7;3.6;;;;;;;18.36;86.32031;938.6914;;;;
2022/08/31 04:07:28;;;;;;;4.2;3.6;;;;;;;18.27;86.88379;938.6973;;;;
2022/08/31 04:09:56;;;;;;;4.7;3.7;;;;;;;18.28;87.31738;938.7244;;;;
2022/08/31 04:12:21;;;;;;;4.6;3.9;;;;;;;18.22;87.91016;938.7698;;;;
2022/08/31 04:14:50;;;;;;;4.8;4.3;;;;;;;18.24;88.02832;938.8058;;;;
2022/08/31 04:17:19;;;;;;;5.2;4;;;;;;;18.19;88.30859;938.8412;;;;
2022/08/31 04:19:41;;;;;;;4.8;4.1;;;;;;;18.21;88.37207;938.7729;;;;
2022/08/31 04:22:05;;;;;;;5.2;4.5;;;;;;;18.16;90.08008;938.8183;;;;
2022/08/31 04:24:31;;;;;;;5.1;4.4;;;;;;;18.2;90.27539;938.8281;;;;
2022/08/31 04:26:56;;;;;;;5;3.9;;;;;;;18.25;90.18262;938.8242;;;;
2022/08/31 04:29:26;;;;;;;5.8;4.6;;;;;;;18.23;89.97949;938.8519;;;;
2022/08/31 04:31:51;;;;;;;4.6;4.1;;;;;;;18.2;89.53223;938.8651;;;;
2022/08/31 04:34:17;;;;;;;5.1;4.2;;;;;;;18.17;89.85156;938.8721;;;;
2022/08/31 04:36:44;;;;;;;6.3;4.2;;;;;;;18.17;90.25684;938.8755;;;;
2022/08/31 04:39:12;;;;;;;4.6;4.2;;;;;;;17.93;91.53223;938.8747;;;;
2022/08/31 04:41:37;;;;;;;4.2;3.7;;;;;;;17.75;92.38867;938.8727;;;;
2022/08/31 04:44:05;;;;;;;4.6;4.1;;;;;;;17.75;93.52637;938.8646;;;;
2022/08/31 04:46:30;;;;;;;5.5;4.5;;;;;;;17.77;93.48535;938.9077;;;;
2022/08/31 04:48:56;;;;;;;7.4;4.8;;;;;;;17.88;93.44824;938.8708;;;;
2022/08/31 04:51:21;;;;;;;6.6;4.8;;;;;;;17.95;92.7207;938.8936;;;;
2022/08/31 04:53:46;;;;;;;6.1;5;;;;;;;17.89;92.63965;938.9308;;;;
2022/08/31 04:56:15;;;;;;;5.5;5;;;;;;;17.84;92.91992;938.9785;;;;
2022/08/31 04:58:43;;;;;;;6;4.6;;;;;;;17.85;92.86426;938.8752;;;;
2022/08/31 05:01:08;;;;;;;4.9;4.5;;;;;;;17.88;92.95117;938.9327;;;;
2022/08/31 05:03:38;;;;;;;5.8;4.6;;;;;;;17.95;92.92969;938.9927;;;;
2022/08/31 05:06:02;;;;;;;6;4.8;;;;;;;17.97;92.44727;938.9875;;;;
2022/08/31 05:08:32;;;;;;;4.8;4.3;;;;;;;18;92.67188;939.024;;;;
2022/08/31 05:10:57;;;;;;;5.6;4.5;;;;;;;18.01;92.62012;938.9827;;;;
2022/08/31 05:13:26;;;;;;;5.2;4.3;;;;;;;18.05;92.05664;938.9517;;;;
2022/08/31 05:15:54;;;;;;;5.4;4.3;;;;;;;17.99;92.54199;938.8631;;;;
2022/08/31 05:18:19;;;;;;;4.5;4.1;;;;;;;17.86;93.19141;938.7928;;;;
2022/08/31 05:20:48;;;;;;;5.6;4.3;;;;;;;17.91;93.17773;938.7671;;;;
2022/08/31 05:23:16;;;;;;;6;4.3;;;;;;;17.94;94.04492;938.6553;;;;
2022/08/31 05:25:43;;;;;;;6.3;4.5;;;;;;;17.84;94.8125;938.6836;;;;
2022/08/31 05:28:10;;;;;;;4.5;4.1;;;;;;;17.74;95.19531;938.6554;;;;
2022/08/31 05:30:35;;;;;;;4.6;4.1;;;;;;;17.77;95.5752;938.629;;;;
2022/08/31 05:33:02;;;;;;;5.1;4.4;;;;;;;17.84;95.32422;938.5443;;;;
2022/08/31 05:35:30;;;;;;;6.5;4.6;;;;;;;17.89;94.71777;938.6359;;;;
2022/08/31 05:37:58;;;;;;;6.7;4.6;;;;;;;17.98;94.35449;938.6545;;;;
2022/08/31 05:40:31;;;;;;;5.5;4.4;;;;;;;17.99;93.57813;938.6633;;;;
2022/08/31 05:43:01;;;;;;;5.6;4.4;;;;;;;18.01;93.30273;938.6653;;;;
2022/08/31 05:45:33;;;;;;;5.8;4.7;;;;;;;17.99;93.37891;938.6617;;;;
2022/08/31 05:48:03;;;;;;;5.8;4.5;;;;;;;18.02;92.88672;938.6727;;;;
2022/08/31 05:50:29;;;;;;;5.7;4.2;;;;;;;18.01;92.89648;938.7137;;;;
2022/08/31 05:52:59;;;;;;;4.7;4.2;;;;;;;17.89;92.87012;938.5983;;;;
2022/08/31 05:55:32;;;;;;;4.4;4;;;;;;;17.99;92.73047;938.6842;;;;
2022/08/31 05:57:58;;;;;;;6;4.2;;;;;;;18.08;93.12109;938.6715;;;;
2022/08/31 06:00:24;;;;;;;4.4;4;;;;;;;18.02;92.79395;938.6646;;;;
2022/08/31 06:02:54;;;;;;;4.5;4.1;;;;;;;18.09;93.22754;938.6763;;;;
2022/08/31 06:05:24;;;;;;;4.9;4.4;;;;;;;18.02;93.75781;938.6202;;;;
2022/08/31 06:07:49;;;;;;;5.4;4;;;;;;;17.93;93.64551;938.658;;;;
2022/08/31 06:10:20;;;;;;;4.4;4;;;;;;;17.83;93.95996;938.6702;;;;
2022/08/31 06:12:49;;;;;;;5.4;4.8;;;;;;;17.86;94.44336;938.6649;;;;
2022/08/31 06:15:15;;;;;;;5.3;4.8;;;;;;;17.85;94.4082;938.7335;;;;
2022/08/31 06:17:39;;;;;;;5.4;4.6;;;;;;;17.76;94.82813;938.6994;;;;
2022/08/31 06:20:11;;;;;;;6;4.4;;;;;;;17.77;94.88867;938.7096;;;;
2022/08/31 06:22:46;;;;;;;4.7;4.2;;;;;;;17.8;94.7334;938.7574;;;;
2022/08/31 06:25:09;;;;;;;5.2;4.7;;;;;;;17.7;94.32715;938.6883;;;;
2022/08/31 06:27:37;;;;;;;5.1;4.4;;;;;;;17.64;95.15137;938.7277;;;;
2022/08/31 06:30:03;;;;;;;5.1;4.6;;;;;;;17.68;94.80078;938.7144;;;;
2022/08/31 06:32:30;;;;;;;5.6;4.4;;;;;;;17.82;94.93457;938.7581;;;;
2022/08/31 06:34:56;;;;;;;4.7;4.2;;;;;;;17.74;95.18457;938.7335;;;;
2022/08/31 06:37:23;;;;;;;4.8;4.2;;;;;;;17.71;95.58496;938.7275;;;;
2022/08/31 06:39:48;;;;;;;4.8;4.3;;;;;;;17.79;96.3457;938.6633;;;;
2022/08/31 06:42:19;;;;;;;4.8;4.3;;;;;;;17.92;95.83887;938.7112;;;;
2022/08/31 06:44:49;;;;;;;6;4.6;;;;;;;18.07;94.84961;938.7838;;;;
2022/08/31 06:47:14;;;;;;;5.7;4.3;;;;;;;18.11;94.76465;938.866;;;;
2022/08/31 06:49:42;;;;;;;5.4;4.6;;;;;;;18.15;95.28418;938.8492;;;;
2022/08/31 06:52:08;;;;;;;5.7;4.6;;;;;;;18.25;94.26172;938.8766;;;;
2022/08/31 06:54:34;;;;;;;5.2;4.3;;;;;;;18.22;94.50879;938.89;;;;
2022/08/31 06:57:01;;;;;;;5.1;4.6;;;;;;;18.26;94.06348;938.8369;;;;
2022/08/31 06:59:28;;;;;;;5.6;5;;;;;;;18.27;94.14941;938.843;;;;
2022/08/31 07:01:53;;;;;;;5.4;4.9;;;;;;;18.31;93.98242;938.8237;;;;
2022/08/31 07:04:21;;;;;;;6.9;5.2;;;;;;;18.36;93.62012;938.8398;;;;
2022/08/31 07:06:46;;;;;;;6;4.8;;;;;;;18.35;93.37598;938.856;;;;
2022/08/31 07:09:14;;;;;;;6.9;4.6;;;;;;;18.29;93.99023;938.8684;;;;
2022/08/31 07:11:38;;;;;;;5.8;4.6;;;;;;;18.42;93.49414;938.8628;;;;
2022/08/31 07:14:06;;;;;;;5.1;4.6;;;;;;;18.4;92.85059;938.8858;;;;
2022/08/31 07:16:31;;;;;;;5.1;4.6;;;;;;;18.45;92.95313;938.9077;;;;
2022/08/31 07:18:56;;;;;;;5.5;4.8;;;;;;;18.57;92.00098;938.9125;;;;
2022/08/31 07:21:24;;;;;;;5.4;4.4;;;;;;;18.64;91.80859;938.9382;;;;
2022/08/31 07:26:16;;;;;;;5.1;4.6;;;;;;;18.68;91.44434;938.9383;;;;
2022/08/31 07:29:39;;;;;;;5.4;4.7;;;;;;;18.83;91.65039;938.9766;;;;
2022/08/31 07:31:43;;;;;;;5.2;4.7;;;;;;;18.73;90.97852;938.9687;;;;
2022/08/31 07:34:09;;;;;;;6;5.1;;;;;;;18.83;90.75586;939.0111;;;;
2022/08/31 07:42:07;;;;;;;6.3;4.7;;;;;;;18.82;90.25195;938.9807;;;;
2022/08/31 07:42:10;;;;;;;5.5;4.9;;;;;;;18.78;92.23242;939.058;;;;
2022/08/31 07:43:58;;;;;;;4.9;4.4;;;;;;;18.76;91.30957;939.0811;;;;
2022/08/31 07:46:19;;;;;;;5.7;5.1;;;;;;;18.87;90.86426;939.0928;;;;
2022/08/31 07:48:44;;;;;;;5.4;4.9;;;;;;;19.04;89.70313;939.1169;;;;
2022/08/31 07:51:14;;;;;;;5;4.5;;;;;;;19.15;87.83789;939.1297;;;;
2022/08/31 07:53:40;;;;;;;4.8;4.3;;;;;;;19.12;88.53125;939.1481;;;;
2022/08/31 07:56:18;;;;;;;4.8;4.3;;;;;;;19.06;88.74023;939.1552;;;;
2022/08/31 07:58:39;;;;;;;5.3;4.3;;;;;;;18.98;88.16504;939.1001;;;;
2022/08/31 08:01:01;;;;;;;5.8;4.1;;;;;;;18.91;89.61914;939.0845;;;;
2022/08/31 08:03:30;;;;;;;4.5;4.1;;;;;;;18.95;89.0459;939.0659;;;;
2022/08/31 08:06:00;;;;;;;5;4.5;;;;;;;18.99;89.20313;939.0756;;;;
2022/08/31 08:08:25;;;;;;;5.7;5.1;;;;;;;19.07;88.16016;939.0814;;;;
2022/08/31 08:11:11;;;;;;;5.1;4.6;;;;;;;19.01;89.12695;939.0323;;;;
2022/08/31 08:13:19;;;;;;;5.4;4.9;;;;;;;18.96;89.7793;939.1433;;;;
2022/08/31 08:16:05;;;;;;;5.1;4.6;;;;;;;19.1;89.29688;939.1331;;;;
2022/08/31 08:18:28;;;;;;;6;4.7;;;;;;;19;89.09961;939.0842;;;;
2022/08/31 08:20:53;;;;;;;5.8;5.1;;;;;;;19.11;88.63672;939.0361;;;;
2022/08/31 08:23:30;;;;;;;6;4.7;;;;;;;19;88.83398;939.1132;;;;
2022/08/31 08:36:06;;;;;;;7.1;5.9;;;;;;;18.32;92.62598;939.2097;;;;
2022/08/31 08:38:19;;;;;;;6.9;6.2;;;;;;;18.35;92.55078;939.2132;;;;
2022/08/31 08:40:50;;;;;;;6.3;5.7;;;;;;;18.42;92.4707;939.1668;;;;
2022/08/31 08:43:15;;;;;;;7.3;6.5;;;;;;;18.63;93.17773;939.2556;;;;
2022/08/31 08:45:39;;;;;;;6.2;5.6;;;;;;;18.77;91.55566;939.2583;;;;
2022/08/31 08:48:19;;;;;;;6.7;5.5;;;;;;;18.92;90.74805;939.2603;;;;
2022/08/31 08:50:41;;;;;;;6.1;5.5;;;;;;;19.03;90.31836;939.3147;;;;
2022/08/31 08:53:06;;;;;;;8;6.1;;;;;;;19.02;90.38574;939.2937;;;;
2022/08/31 08:55:37;;;;;;;6.6;5.6;;;;;;;19.11;90.36914;939.2913;;;;
2022/08/31 08:58:07;;;;;;;8;6.2;;;;;;;19.15;90.98242;939.3016;;;;
2022/08/31 09:00:45;;;;;;;6.6;5.6;;;;;;;19.16;89.11133;939.3264;;;;
2022/08/31 09:03:05;;;;;;;7.6;5.7;;;;;;;18.98;89.51758;939.3219;;;;
2022/08/31 09:05:34;;;;;;;8.4;5.6;;;;;;;19.16;90.59961;939.3434;;;;
2022/08/31 09:08:10;;;;;;;7.9;6.1;;;;;;;19.33;88.57324;939.3778;;;;
2022/08/31 09:10:29;;;;;;;7.3;5.5;;;;;;;19.44;88.02441;939.3911;;;;
2022/08/31 09:13:00;;;;;;;6.9;6.2;;;;;;;19.28;88.74902;939.4453;;;;
2022/08/31 09:15:35;;;;;;;8;6.7;;;;;;;19.38;88.74707;939.5034;;;;
2022/08/31 09:17:48;;;;;;;8.6;6.9;;;;;;;19.42;87.88086;939.4592;;;;
2022/08/31 09:20:19;;;;;;;8.5;7.3;;;;;;;19.45;87.80469;939.5265;;;;
2022/08/31 09:22:49;;;;;;;8;7.1;;;;;;;19.57;88.42383;939.4367;;;;
2022/08/31 09:25:13;;;;;;;7.9;6.6;;;;;;;19.6;87.46191;939.5062;;;;
2022/08/31 09:27:45;;;;;;;7.5;6.8;;;;;;;19.67;86.25195;939.5422;;;;
2022/08/31 09:30:08;;;;;;;9;6.8;;;;;;;19.71;86.875;939.543;;;;
2022/08/31 09:32:35;;;;;;;8.6;6.8;;;;;;;19.83;86.88867;939.5218;;;;
2022/08/31 09:35:03;;;;;;;7.2;6.5;;;;;;;19.67;86.625;939.4985;;;;
2022/08/31 09:37:32;;;;;;;7.3;6.5;;;;;;;19.64;87.49414;939.5259;;;;
2022/08/31 09:39:53;;;;;;;7.7;6.7;;;;;;;19.6;87.3457;939.5394;;;;
2022/08/31 09:42:27;;;;;;;6.8;5.9;;;;;;;19.24;87.32227;939.5389;;;;
2022/08/31 09:46:55;;;;;;;6.7;5.7;;;;;;;19.38;86.46387;939.6158;;;;
2022/08/31 09:49:22;;;;;;;8.5;6.5;;;;;;;19.19;88.15039;939.6244;;;;
2022/08/31 09:51:46;;;;;;;7.5;6.2;;;;;;;19.07;88.87012;939.5965;;;;
2022/08/31 09:56:42;;;;;;;5.7;4.1;;;;;;;19.15;88.29395;939.5792;;;;
2022/08/31 09:59:04;;;;;;;5;4.5;;;;;;;19.22;87.77148;939.5811;;;;
2022/08/31 10:01:30;;;;;;;4.8;4.3;;;;;;;19.25;87.00781;939.5984;;;;
2022/08/31 10:03:58;;;;;;;3.9;3.5;;;;;;;19.27;86.94336;939.6077;;;;
2022/08/31 10:06:23;;;;;;;3.8;3.2;;;;;;;19.32;87.15039;939.6286;;;;
2022/08/31 10:08:45;;;;;;;3.9;3.3;;;;;;;19.27;87.53711;939.5803;;;;
2022/08/31 10:11:12;;;;;;;3.7;3.3;;;;;;;19.46;86.82715;939.6256;;;;
2022/08/31 10:13:37;;;;;;;2.1;1.9;;;;;;;19.19;86.6709;939.6777;;;;
2022/08/31 10:16:24;;;;;;;1.5;1.4;;;;;;;19.21;86.33691;939.7079;;;;
2022/08/31 10:18:36;;;;;;;2.1;1.8;;;;;;;18.79;89.17383;939.7162;;;;
2022/08/31 10:21:04;;;;;;;1.7;1.5;;;;;;;18.95;89.73242;939.6517;;;;
2022/08/31 10:23:26;;;;;;;2.3;2.1;;;;;;;18.79;90.31641;939.7297;;;;
2022/08/31 10:25:53;;;;;;;23;12.1;;;;;;;18.73;90.18555;939.7012;;;;
2022/08/31 10:28:16;;;;;;;25.1;12.3;;;;;;;18.87;89.66797;939.7569;;;;
2022/08/31 10:30:41;;;;;;;13.7;7.1;;;;;;;18.9;88.50977;939.7352;;;;
2022/08/31 10:33:06;;;;;;;102.5;52.2;;;;;;;18.96;88.91797;939.6864;;;;
2022/08/31 10:35:36;;;;;;;7.8;4.8;;;;;;;18.92;88.74609;939.705;;;;
2022/08/31 10:37:57;;;;;;;3.3;2.9;;;;;;;18.76;88.73828;939.762;;;;
2022/08/31 10:40:22;;;;;;;85.7;47.4;;;;;;;18.96;89.09277;939.7219;;;;
2022/08/31 10:42:49;;;;;;;23.5;13.9;;;;;;;18.99;87.76074;939.743;;;;
2022/08/31 10:45:14;;;;;;;3.9;3;;;;;;;18.96;88.12793;939.817;;;;
2022/08/31 10:47:43;;;;;;;6.6;3.8;;;;;;;18.87;88.21289;939.7874;;;;
2022/08/31 10:50:07;;;;;;;2.6;2.3;;;;;;;18.74;89.18848;939.7823;;;;
2022/08/31 10:52:33;;;;;;;4.9;3.3;;;;;;;18.76;89.50586;939.7458;;;;
2022/08/31 10:55:05;;;;;;;5.3;3;;;;;;;18.85;88.7334;939.8444;;;;
2022/08/31 10:57:30;;;;;;;3.8;2.6;;;;;;;18.79;89.33691;939.7856;;;;
2022/08/31 10:59:51;;;;;;;3.5;2.5;;;;;;;18.72;89.74121;939.816;;;;
2022/08/31 11:02:17;;;;;;;2.7;2.3;;;;;;;18.38;91.91699;939.8262;;;;
2022/08/31 11:04:45;;;;;;;2.5;2.3;;;;;;;18.3;91.91113;939.8075;;;;
2022/08/31 11:07:10;;;;;;;2.7;2.3;;;;;;;18.5;91.79199;939.8348;;;;
2022/08/31 11:10:07;;;;;;;2.4;2.2;;;;;;;18.55;90.17383;939.8879;;;;
2022/08/31 11:12:28;;;;;;;3.2;2.1;;;;;;;18.45;90.35059;939.9519;;;;
2022/08/31 11:14:57;;;;;;;2.7;2.2;;;;;;;18.53;90.30957;939.8915;;;;
2022/08/31 11:17:18;;;;;;;3.4;2.5;;;;;;;18.6;90.34766;939.9604;;;;
2022/08/31 11:27:49;;;;;;;2.7;2.5;;;;;;;18.69;88.24707;939.9956;;;;
2022/08/31 11:30:23;;;;;;;2.7;2.5;;;;;;;18.52;87.21387;939.9504;;;;
2022/08/31 11:33:06;;;;;;;5.2;2.2;;;;;;;18.47;87.88965;939.9716;;;;
2022/08/31 11:35:32;;;;;;;2.6;2.4;;;;;;;18.58;87.1084;939.935;;;;
2022/08/31 11:37:57;;;;;;;3.6;2.4;;;;;;;18.64;87.04004;939.9796;;;;
2022/08/31 11:40:30;;;;;;;3.3;2.8;;;;;;;18.72;86.99609;939.9928;;;;
2022/08/31 11:43:13;;;;;;;3;2.7;;;;;;;18.79;87.0332;939.9953;;;;
2022/08/31 11:45:39;;;;;;;3.5;3;;;;;;;18.94;85.69043;940.0394;;;;
2022/08/31 11:48:20;;;;;;;3.3;3;;;;;;;18.85;86.46387;939.9888;;;;
2022/08/31 11:50:37;;;;;;;3.3;3;;;;;;;18.73;85.70801;939.9489;;;;
2022/08/31 11:53:00;;;;;;;4.8;3.9;;;;;;;18.85;86.28906;939.9928;;;;
2022/08/31 11:56:05;;;;;;;3.7;3.1;;;;;;;18.97;85.03223;940.0372;;;;
2022/08/31 11:58:48;;;;;;;;;;;;;;;;;;;;;
2022/08/31 12:06:08;;;;;;;3.4;3.1;;;;;;;19.09;84.84473;940.1239;;;;
2022/08/31 16:28:11;;;;;;;5.9;3.9;;;;;;;18.27;87.93164;939.9515;;;;
2022/08/31 16:30:42;;;;;;;7.1;6;;;;;;;18.26;87.73047;940.0122;;;;
2022/08/31 16:33:15;;;;;;;7.5;5.9;;;;;;;18.21;87.61426;940.0338;;;;
2022/08/31 16:35:49;;;;;;;6.6;6;;;;;;;18.2;87.80078;940.0637;;;;
2022/08/31 16:38:18;;;;;;;6.7;5.6;;;;;;;18.29;87.77246;940.0793;;;;
2022/08/31 16:41:00;;;;;;;6.6;5.9;;;;;;;18.34;87.8623;940.0882;;;;
2022/08/31 16:43:29;;;;;;;6.5;5.8;;;;;;;18.31;87.47363;940.1097;;;;
2022/08/31 16:46:02;;;;;;;8.2;5.7;;;;;;;18.32;87.69629;940.0862;;;;
2022/08/31 16:50:55;;;;;;;5.8;5.3;;;;;;;18.15;89.0332;940.0725;;;;
2022/08/31 16:53:27;;;;;;;5.8;5.2;;;;;;;18.17;88.68945;940.0497;;;;
2022/08/31 16:55:59;;;;;;;6.4;5.8;;;;;;;18.07;87.78711;940.0762;;;;
2022/08/31 16:58:30;;;;;;;6.9;6;;;;;;;18.13;88.2041;940.1721;;;;
2022/08/31 17:00:57;;;;;;;6;5;;;;;;;18.19;88.02148;940.1331;;;;
2022/08/31 17:03:18;;;;;;;6.5;5.9;;;;;;;18.19;88.50781;940.13;;;;
2022/08/31 17:05:45;;;;;;;6.2;5.4;;;;;;;18.19;88.78809;940.0364;;;;
2022/08/31 17:08:13;;;;;;;7.8;5.4;;;;;;;18.14;88.48535;940.1333;;;;
2022/08/31 17:10:42;;;;;;;6;5.4;;;;;;;18.12;88.24902;940.1264;;;;
2022/08/31 17:13:10;;;;;;;7.1;6.1;;;;;;;18.03;89.39258;940.1021;;;;
2022/08/31 17:15:38;;;;;;;7;5.9;;;;;;;18.01;88.95898;940.0706;;;;
2022/08/31 17:18:03;;;;;;;7.9;5.9;;;;;;;18.02;88.84473;940.0488;;;;
2022/08/31 17:20:30;;;;;;;6;5.5;;;;;;;18.04;87.68848;940.0471;;;;
2022/08/31 17:22:56;;;;;;;7.2;5.9;;;;;;;18.11;87.81738;940.1006;;;;
2022/08/31 17:25:23;;;;;;;6.2;5.1;;;;;;;17.88;89.27051;940.0444;;;;
2022/08/31 17:27:49;;;;;;;5.9;5.3;;;;;;;17.78;89.77246;940.0634;;;;
2022/08/31 17:30:22;;;;;;;6.4;5.5;;;;;;;17.82;89.48926;940.0325;;;;
2022/08/31 17:32:52;;;;;;;7.2;6.5;;;;;;;17.92;89.71875;940.1237;;;;
2022/08/31 17:35:18;;;;;;;6.3;5.7;;;;;;;17.93;89.74609;940.063;;;;
2022/08/31 17:37:44;;;;;;;7.1;6.4;;;;;;;17.94;89.68945;940.0919;;;;
2022/08/31 17:40:19;;;;;;;6.9;6.1;;;;;;;17.93;88.70996;940.1041;;;;
2022/08/31 17:42:55;;;;;;;7.1;5.9;;;;;;;17.93;88.71191;940.0936;;;;
2022/08/31 17:45:21;;;;;;;7.7;6.1;;;;;;;17.86;89.58984;940.0828;;;;
2022/08/31 17:47:57;;;;;;;7.1;6.4;;;;;;;17.88;89.11719;940.1195;;;;
2022/08/31 17:50:23;;;;;;;7.2;6.5;;;;;;;17.78;90.07422;940.115;;;;
2022/08/31 17:52:49;;;;;;;7.2;5.8;;;;;;;17.68;90.66699;940.1633;;;;
2022/08/31 17:55:39;;;;;;;6;5.4;;;;;;;17.73;90.27246;940.1972;;;;
2022/08/31 17:58:11;;;;;;;7.6;5.9;;;;;;;17.66;90.42188;940.2462;;;;
2022/08/31 18:00:42;;;;;;;6.8;6.1;;;;;;;17.37;91.625;940.2304;;;;
2022/08/31 18:03:08;;;;;;;6.2;5.6;;;;;;;17.26;91.25391;940.2954;;;;
2022/08/31 18:05:33;;;;;;;6.2;5;;;;;;;17;92.19629;940.327;;;;
2022/08/31 18:08:03;;;;;;;8.7;6.1;;;;;;;16.87;92.25098;940.2964;;;;
2022/08/31 18:10:35;;;;;;;6.5;5.8;;;;;;;16.62;93.70313;940.3035;;;;
2022/08/31 18:13:02;;;;;;;6.5;5.8;;;;;;;16.52;94.14453;940.3515;;;;
2022/08/31 18:15:27;;;;;;;8.1;5.9;;;;;;;16.36;95.16309;940.3464;;;;
2022/08/31 18:17:52;;;;;;;6.4;5;;;;;;;16.19;93.87598;940.3453;;;;
2022/08/31 18:20:19;;;;;;;6.2;5.6;;;;;;;16.06;94.79785;940.3624;;;;
2022/08/31 18:22:51;;;;;;;6.5;5.4;;;;;;;16.05;95.18848;940.3809;;;;
2022/08/31 18:25:16;;;;;;;5.6;4.9;;;;;;;16.13;94.2832;940.3602;;;;
2022/08/31 18:27:41;;;;;;;6.6;5;;;;;;;16.22;93.82422;940.3831;;;;
2022/08/31 18:30:15;;;;;;;7.1;5.5;;;;;;;16.18;94.5127;940.3936;;;;
2022/08/31 18:32:40;;;;;;;6.1;5.2;;;;;;;16.2;94.43359;940.4392;;;;
2022/08/31 18:35:12;;;;;;;6.1;5.4;;;;;;;16.1;95.77832;940.4272;;;;
2022/08/31 18:37:36;;;;;;;6.4;5.3;;;;;;;16.18;94.77637;940.4201;;;;
2022/08/31 18:45:17;;;;;;;6.2;5;;;;;;;16.16;94.93457;940.4178;;;;
2022/08/31 18:47:45;;;;;;;6.3;4.7;;;;;;;16.14;94.31738;940.32;;;;
2022/08/31 18:50:08;;;;;;;5.3;4.8;;;;;;;16.08;95;940.3734;;;;
2022/08/31 18:52:40;;;;;;;5.2;4.7;;;;;;;16.04;96.0752;940.4124;;;;
2022/08/31 18:55:03;;;;;;;5.3;4.8;;;;;;;16.09;95.95996;940.3959;;;;
2022/08/31 18:57:37;;;;;;;5.8;5.2;;;;;;;16.1;95.25781;940.3974;;;;
2022/08/31 19:00:08;;;;;;;6;5.2;;;;;;;16.05;95.58398;940.3882;;;;
2022/08/31 19:02:40;;;;;;;8.5;6;;;;;;;16.1;94.71289;940.4465;;;;
2022/08/31 19:05:16;;;;;;;6.5;5.4;;;;;;;16.11;94.58984;940.4327;;;;
2022/08/31 19:07:41;;;;;;;7.3;5.3;;;;;;;16.13;93.94531;940.4149;;;;
2022/08/31 19:10:19;;;;;;;6;5.2;;;;;;;16.14;93.56543;940.4637;;;;
2022/08/31 19:12:44;;;;;;;5.7;5.1;;;;;;;16.18;92.99707;940.4529;;;;
2022/08/31 19:15:16;;;;;;;5.3;4.8;;;;;;;16.1;93.78711;940.4103;;;;
2022/08/31 19:17:47;;;;;;;5.8;5.2;;;;;;;16.14;93.23047;940.4244;;;;
2022/08/31 19:20:08;;;;;;;6.1;5.5;;;;;;;16.14;93.70508;940.4694;;;;
2022/08/31 19:22:41;;;;;;;7;5.5;;;;;;;16.06;94.36914;940.4669;;;;
2022/08/31 19:25:14;;;;;;;6;5.4;;;;;;;16.03;94.53711;940.4727;;;;
2022/08/31 19:27:38;;;;;;;6.3;5.2;;;;;;;16.04;94.3291;940.4253;;;;
2022/08/31 19:30:07;;;;;;;6.4;5.5;;;;;;;16.03;95.24023;940.4406;;;;
2022/08/31 19:32:31;;;;;;;6.8;5.4;;;;;;;15.9;96.97168;940.3972;;;;
2022/08/31 19:34:59;;;;;;;8.1;5.8;;;;;;;15.92;97.24219;940.3794;;;;